createdAt,value
2018-08-08T00:00:25.509Z,7.93
2018-08-08T00:02:53.950Z,7.00
2018-08-08T00:05:22.378Z,7.60
2018-08-08T00:07:50.792Z,7.47
2018-08-08T00:10:19.170Z,7.47
2018-08-08T00:12:47.532Z,7.80
2018-08-08T00:15:16.021Z,7.50
2018-08-08T00:17:45.284Z,6.90
2018-08-08T00:20:13.865Z,7.07
2018-08-08T00:22:42.367Z,7.13
2018-08-08T00:25:12.986Z,7.50
2018-08-08T00:27:42.101Z,8.10
2018-08-08T00:30:11.493Z,7.80
2018-08-08T00:32:40.158Z,7.20
2018-08-08T00:35:08.494Z,7.30
2018-08-08T00:37:37.416Z,7.17
2018-08-08T00:40:11.313Z,8.00
2018-08-08T00:42:39.985Z,8.30
2018-08-08T00:45:11.385Z,7.77
2018-08-08T00:47:40.571Z,7.87
2018-08-08T00:50:10.676Z,7.87
2018-08-08T00:52:39.706Z,7.87
2018-08-08T00:55:08.429Z,7.50
2018-08-08T00:57:37.048Z,7.57
2018-08-08T01:00:07.444Z,7.50
2018-08-08T01:02:36.335Z,8.20
2018-08-08T01:05:07.995Z,8.00
2018-08-08T01:07:36.359Z,7.33
2018-08-08T01:10:06.081Z,7.83
2018-08-08T01:12:34.383Z,7.57
2018-08-08T01:15:03.145Z,7.50
2018-08-08T01:17:31.438Z,8.00
2018-08-08T01:19:59.913Z,7.70
2018-08-08T01:22:28.415Z,7.50
2018-08-08T01:24:56.800Z,7.60
2018-08-08T01:27:25.110Z,8.10
2018-08-08T01:29:53.376Z,7.67
2018-08-08T01:32:21.817Z,7.50
2018-08-08T01:34:50.210Z,7.90
2018-08-08T01:37:18.571Z,7.43
2018-08-08T01:39:46.921Z,7.07
2018-08-08T01:42:15.384Z,7.70
2018-08-08T01:44:44.081Z,7.57
2018-08-08T01:47:12.479Z,7.07
2018-08-08T01:49:40.821Z,7.53
2018-08-08T01:52:09.211Z,7.60
2018-08-08T01:54:37.540Z,8.07
2018-08-08T01:57:12.791Z,7.93
2018-08-08T01:59:41.181Z,6.83
2018-08-08T02:02:09.585Z,7.47
2018-08-08T02:04:37.938Z,7.00
2018-08-08T02:07:06.376Z,7.93
2018-08-08T02:09:34.906Z,8.03
2018-08-08T02:12:03.356Z,7.20
2018-08-08T02:14:31.726Z,7.80
2018-08-08T02:17:00.111Z,7.60
2018-08-08T02:19:28.460Z,7.13
2018-08-08T02:21:56.870Z,7.00
2018-08-08T02:24:25.169Z,7.30
2018-08-08T02:26:53.476Z,6.60
2018-08-08T02:29:21.839Z,7.73
2018-08-08T02:31:50.177Z,7.23
2018-08-08T02:34:18.549Z,8.00
2018-08-08T02:36:46.917Z,6.77
2018-08-08T02:39:15.226Z,6.90
2018-08-08T02:41:43.560Z,7.27
2018-08-08T02:44:11.921Z,7.00
2018-08-08T02:46:40.286Z,7.90
2018-08-08T02:49:08.692Z,7.47
2018-08-08T02:51:37.073Z,8.53
2018-08-08T02:54:05.365Z,7.27
2018-08-08T02:56:33.694Z,7.00
2018-08-08T02:59:02.024Z,8.17
2018-08-08T03:01:30.508Z,7.43
2018-08-08T03:03:58.913Z,7.70
2018-08-08T03:06:27.298Z,8.63
2018-08-08T03:08:55.596Z,8.73
2018-08-08T03:11:23.907Z,8.40
2018-08-08T03:13:52.269Z,8.90
2018-08-08T03:16:20.631Z,9.07
2018-08-08T03:18:48.927Z,8.90
2018-08-08T03:21:17.276Z,9.83
2018-08-08T03:23:45.719Z,9.20
2018-08-08T03:26:14.098Z,8.77
2018-08-08T03:28:42.427Z,8.63
2018-08-08T03:31:10.774Z,8.33
2018-08-08T03:33:39.053Z,10.20
2018-08-08T03:36:07.403Z,11.07
2018-08-08T03:38:35.756Z,10.40
2018-08-08T03:41:03.531Z,10.03
2018-08-08T03:43:31.890Z,9.63
2018-08-08T03:46:00.307Z,9.50
2018-08-08T03:48:28.790Z,10.03
2018-08-08T03:50:57.107Z,9.00
2018-08-08T03:53:25.477Z,9.00
2018-08-08T03:55:53.798Z,7.33
2018-08-08T03:58:22.162Z,7.90
2018-08-08T04:00:50.577Z,7.57
2018-08-08T04:03:19.008Z,7.43
2018-08-08T04:05:47.405Z,7.57
2018-08-08T04:08:15.671Z,7.30
2018-08-08T04:10:44.062Z,6.30
2018-08-08T04:13:12.480Z,6.97
2018-08-08T04:15:40.858Z,6.77
2018-08-08T04:18:09.275Z,7.33
2018-08-08T04:20:38.285Z,6.93
2018-08-08T04:23:06.716Z,6.07
2018-08-08T04:25:35.165Z,6.57
2018-08-08T04:28:03.499Z,7.20
2018-08-08T04:30:32.062Z,7.20
2018-08-08T04:33:00.426Z,7.93
2018-08-08T04:35:28.836Z,7.60
2018-08-08T04:37:57.205Z,6.97
2018-08-08T04:40:25.556Z,7.50
2018-08-08T04:42:53.958Z,6.80
2018-08-08T04:45:22.353Z,6.90
2018-08-08T04:47:50.738Z,5.97
2018-08-08T04:50:19.260Z,7.47
2018-08-08T04:52:47.753Z,7.03
2018-08-08T04:55:17.029Z,6.67
2018-08-08T04:57:45.417Z,7.03
2018-08-08T05:00:15.803Z,7.60
2018-08-08T05:02:44.591Z,7.93
2018-08-08T05:05:13.084Z,9.27
2018-08-08T05:07:41.497Z,7.63
2018-08-08T05:10:11.421Z,7.57
2018-08-08T05:12:40.713Z,7.07
2018-08-08T05:15:12.193Z,6.90
2018-08-08T05:17:40.636Z,9.07
2018-08-08T05:20:10.429Z,7.50
2018-08-08T05:22:38.777Z,7.67
2018-08-08T05:25:07.257Z,8.40
2018-08-08T05:27:35.652Z,6.90
2018-08-08T05:30:10.589Z,7.00
2018-08-08T05:32:39.613Z,6.93
2018-08-08T05:35:08.173Z,7.27
2018-08-08T05:37:36.783Z,6.90
2018-08-08T05:40:09.212Z,7.70
2018-08-08T05:42:37.577Z,8.03
2018-08-08T05:45:10.126Z,7.30
2018-08-08T05:47:38.615Z,7.97
2018-08-08T05:50:09.661Z,9.00
2018-08-08T05:52:38.553Z,8.50
2018-08-08T05:55:08.184Z,9.77
2018-08-08T05:57:36.985Z,8.90
2018-08-08T06:00:12.806Z,8.30
2018-08-08T06:02:41.304Z,9.37
2018-08-08T06:05:10.113Z,8.90
2018-08-08T06:07:38.453Z,9.63
2018-08-08T06:10:07.478Z,8.83
2018-08-08T06:12:35.935Z,9.10
2018-08-08T06:15:07.634Z,9.70
2018-08-08T06:17:36.730Z,9.90
2018-08-08T06:20:09.206Z,9.10
2018-08-08T06:22:37.669Z,8.70
2018-08-08T06:25:07.475Z,9.23
2018-08-08T06:27:36.486Z,9.20
2018-08-08T06:30:17.800Z,10.50
2018-08-08T06:32:46.422Z,8.97
2018-08-08T06:35:16.793Z,11.57
2018-08-08T06:37:45.319Z,10.07
2018-08-08T06:40:14.941Z,10.60
2018-08-08T06:42:44.565Z,9.83
2018-08-08T06:45:15.849Z,9.70
2018-08-08T06:47:44.652Z,10.30
2018-08-08T06:50:14.434Z,9.63
2018-08-08T06:52:42.752Z,9.27
2018-08-08T06:55:13.506Z,9.53
2018-08-08T06:57:42.042Z,10.20
2018-08-08T07:00:22.168Z,9.90
2018-08-08T07:02:50.726Z,9.60
2018-08-08T07:05:19.302Z,10.17
2018-08-08T07:07:48.489Z,11.00
2018-08-08T07:10:17.528Z,11.03
2018-08-08T07:12:46.027Z,10.90
2018-08-08T07:15:16.519Z,10.03
2018-08-08T07:17:44.993Z,10.57
2018-08-08T07:20:15.000Z,10.03
2018-08-08T07:22:43.414Z,8.70
2018-08-08T07:25:14.257Z,9.10
2018-08-08T07:27:42.688Z,9.80
2018-08-08T07:30:18.122Z,9.77
2018-08-08T07:32:46.604Z,9.30
2018-08-08T07:35:15.078Z,9.83
2018-08-08T07:37:45.281Z,7.80
2018-08-08T07:40:15.420Z,9.73
2018-08-08T07:42:43.852Z,8.67
2018-08-08T07:45:24.912Z,8.73
2018-08-08T07:47:53.514Z,8.90
2018-08-08T07:50:21.945Z,9.60
2018-08-08T07:52:50.408Z,9.50
2018-08-08T07:55:21.508Z,9.47
2018-08-08T07:57:49.916Z,8.43
2018-08-08T08:00:28.895Z,8.90
2018-08-08T08:02:58.483Z,8.93
2018-08-08T08:05:27.057Z,8.47
2018-08-08T08:07:56.043Z,8.93
2018-08-08T08:10:24.417Z,9.83
2018-08-08T08:12:52.865Z,8.60
2018-08-08T08:15:21.105Z,8.87
2018-08-08T08:17:49.400Z,8.40
2018-08-08T08:20:18.721Z,8.20
2018-08-08T08:22:48.137Z,8.23
2018-08-08T08:25:16.544Z,7.87
2018-08-08T08:27:44.892Z,8.20
2018-08-08T08:30:14.678Z,8.43
2018-08-08T08:32:43.748Z,8.27
2018-08-08T08:35:12.156Z,8.80
2018-08-08T08:37:40.531Z,7.93
2018-08-08T08:40:10.146Z,8.77
2018-08-08T08:42:38.806Z,7.80
2018-08-08T08:45:07.391Z,8.27
2018-08-08T08:47:35.769Z,8.33
2018-08-08T08:50:04.828Z,8.03
2018-08-08T08:52:33.182Z,7.77
2018-08-08T08:55:01.552Z,7.90
2018-08-08T08:57:29.901Z,7.70
2018-08-08T08:59:59.640Z,7.93
2018-08-08T09:02:28.064Z,6.70
2018-08-08T09:04:56.481Z,7.77
2018-08-08T09:07:24.913Z,7.07
2018-08-08T09:09:53.244Z,7.20
2018-08-08T09:12:21.706Z,6.90
2018-08-08T09:14:50.648Z,6.20
2018-08-08T09:17:19.061Z,6.47
2018-08-08T09:19:47.398Z,6.50
2018-08-08T09:22:15.770Z,7.30
2018-08-08T09:24:44.158Z,7.20
2018-08-08T09:27:13.220Z,6.17
2018-08-08T09:29:46.050Z,5.97
2018-08-08T09:32:14.378Z,5.00
2018-08-08T09:34:42.650Z,4.83
2018-08-08T09:37:10.988Z,4.73
2018-08-08T09:39:39.404Z,5.33
2018-08-08T09:42:07.789Z,5.03
2018-08-08T09:44:36.157Z,4.97
2018-08-08T09:47:04.501Z,5.27
2018-08-08T09:49:33.704Z,5.07
2018-08-08T09:52:02.548Z,5.30
2018-08-08T09:54:30.949Z,5.10
2018-08-08T09:56:59.374Z,4.80
2018-08-08T09:59:27.739Z,5.50
2018-08-08T10:02:01.686Z,4.83
2018-08-08T10:04:33.131Z,6.00
2018-08-08T10:07:03.092Z,5.57
2018-08-08T10:09:31.530Z,5.07
2018-08-08T10:12:00.047Z,4.70
2018-08-08T10:14:28.828Z,5.87
2018-08-08T10:16:57.275Z,5.47
2018-08-08T10:19:25.741Z,5.50
2018-08-08T10:21:54.197Z,5.30
2018-08-08T10:24:22.543Z,6.33
2018-08-08T10:26:51.016Z,5.37
2018-08-08T10:29:19.400Z,5.30
2018-08-08T10:31:47.725Z,5.00
2018-08-08T10:34:16.127Z,5.73
2018-08-08T10:36:44.509Z,6.00
2018-08-08T10:39:13.153Z,5.23
2018-08-08T10:41:42.386Z,6.30
2018-08-08T10:44:10.773Z,5.87
2018-08-08T10:46:39.114Z,7.83
2018-08-08T10:49:07.486Z,5.10
2018-08-08T10:51:35.838Z,5.63
2018-08-08T10:54:04.352Z,5.67
2018-08-08T10:56:32.745Z,5.53
2018-08-08T10:59:01.145Z,5.83
2018-08-08T11:01:29.533Z,5.67
2018-08-08T11:03:57.937Z,5.90
2018-08-08T11:06:26.334Z,4.83
2018-08-08T11:08:54.690Z,6.13
2018-08-08T11:11:23.116Z,5.83
2018-08-08T11:13:51.526Z,6.17
2018-08-08T11:16:20.051Z,5.17
2018-08-08T11:18:48.417Z,5.30
2018-08-08T11:21:16.850Z,5.47
2018-08-08T11:23:45.211Z,6.03
2018-08-08T11:26:13.549Z,5.10
2018-08-08T11:28:42.294Z,5.70
2018-08-08T11:31:10.658Z,5.70
2018-08-08T11:33:38.986Z,6.10
2018-08-08T11:36:07.385Z,7.70
2018-08-08T11:38:35.823Z,5.60
2018-08-08T11:41:04.341Z,5.80
2018-08-08T11:43:32.756Z,5.70
2018-08-08T11:46:01.249Z,6.33
2018-08-08T11:48:29.785Z,5.80
2018-08-08T11:50:58.117Z,5.83
2018-08-08T11:53:27.034Z,5.90
2018-08-08T11:55:55.372Z,5.40
2018-08-08T11:58:23.709Z,6.87
2018-08-08T12:00:52.039Z,6.90
2018-08-08T12:03:20.522Z,6.03
2018-08-08T12:05:49.422Z,5.70
2018-08-08T12:08:17.758Z,6.50
2018-08-08T12:10:46.180Z,5.63
2018-08-08T12:13:14.612Z,5.60
2018-08-08T12:15:43.229Z,5.63
2018-08-08T12:18:12.635Z,6.23
2018-08-08T12:20:41.020Z,5.87
2018-08-08T12:23:09.341Z,5.83
2018-08-08T12:25:37.742Z,5.50
2018-08-08T12:28:06.114Z,6.73
2018-08-08T12:30:34.469Z,6.17
2018-08-08T12:33:02.840Z,6.23
2018-08-08T12:35:31.338Z,5.97
2018-08-08T12:37:59.562Z,6.30
2018-08-08T12:40:27.951Z,6.03
2018-08-08T12:42:56.350Z,5.80
2018-08-08T12:45:24.703Z,6.43
2018-08-08T12:47:53.077Z,6.07
2018-08-08T12:50:21.455Z,6.50
2018-08-08T12:52:49.877Z,5.30
2018-08-08T12:55:18.219Z,6.07
2018-08-08T12:57:46.601Z,5.27
2018-08-08T13:00:15.003Z,5.80
2018-08-08T13:02:43.382Z,5.70
2018-08-08T13:05:11.770Z,5.60
2018-08-08T13:07:40.204Z,5.90
2018-08-08T13:10:08.617Z,6.70
2018-08-08T13:12:37.008Z,6.37
2018-08-08T13:15:06.893Z,6.40
2018-08-08T13:17:35.273Z,5.80
2018-08-08T13:20:04.513Z,5.13
2018-08-08T13:22:32.909Z,5.60
2018-08-08T13:25:01.327Z,6.67
2018-08-08T13:27:29.847Z,7.10
2018-08-08T13:29:58.336Z,7.60
2018-08-08T13:32:26.821Z,6.10
2018-08-08T13:34:55.226Z,7.07
2018-08-08T13:37:24.137Z,7.43
2018-08-08T13:39:52.705Z,6.60
2018-08-08T13:42:21.247Z,7.30
2018-08-08T13:44:49.613Z,7.10
2018-08-08T13:47:18.016Z,6.57
2018-08-08T13:49:46.446Z,6.40
2018-08-08T13:52:14.860Z,7.70
2018-08-08T13:54:43.200Z,6.40
2018-08-08T13:57:11.556Z,6.03
2018-08-08T13:59:40.013Z,6.33
2018-08-08T14:02:08.448Z,6.00
2018-08-08T14:04:36.864Z,4.67
2018-08-08T14:07:05.401Z,4.57
2018-08-08T14:09:33.912Z,5.30
2018-08-08T14:12:02.339Z,5.33
2018-08-08T14:14:30.789Z,4.70
2018-08-08T14:16:59.186Z,5.43
2018-08-08T14:19:27.530Z,6.10
2018-08-08T14:21:55.970Z,5.37
2018-08-08T14:24:24.284Z,6.30
2018-08-08T14:26:52.723Z,5.13
2018-08-08T14:29:21.010Z,4.93
2018-08-08T14:31:49.353Z,5.30
2018-08-08T14:34:17.808Z,4.70
2018-08-08T14:36:46.128Z,5.60
2018-08-08T14:39:14.560Z,5.20
2018-08-08T14:41:42.930Z,4.80
2018-08-08T14:44:11.316Z,5.00
2018-08-08T14:46:39.642Z,5.57
2018-08-08T14:49:08.860Z,5.23
2018-08-08T14:51:37.280Z,6.03
2018-08-08T14:54:05.867Z,6.37
2018-08-08T14:56:34.422Z,5.63
2018-08-08T14:59:03.010Z,6.83
2018-08-08T15:01:31.840Z,5.60
2018-08-08T15:04:00.409Z,5.67
2018-08-08T15:06:28.854Z,5.40
2018-08-08T15:08:57.264Z,4.93
2018-08-08T15:11:25.695Z,5.80
2018-08-08T15:13:54.047Z,5.40
2018-08-08T15:16:22.506Z,5.63
2018-08-08T15:18:50.959Z,4.97
2018-08-08T15:21:19.445Z,6.43
2018-08-08T15:23:47.902Z,4.90
2018-08-08T15:26:16.325Z,5.17
2018-08-08T15:28:44.669Z,5.50
2018-08-08T15:31:13.081Z,4.93
2018-08-08T15:33:41.467Z,5.20
2018-08-08T15:36:09.869Z,5.20
2018-08-08T15:38:38.341Z,7.20
2018-08-08T15:41:06.805Z,7.67
2018-08-08T15:43:35.197Z,5.87
2018-08-08T15:46:03.678Z,4.50
2018-08-08T15:48:32.034Z,4.40
2018-08-08T15:51:00.465Z,5.53
2018-08-08T15:53:28.881Z,5.00
2018-08-08T15:55:57.237Z,4.97
2018-08-08T15:58:25.769Z,4.50
2018-08-08T16:00:54.856Z,5.00
2018-08-08T16:03:23.299Z,4.17
2018-08-08T16:05:51.740Z,4.67
2018-08-08T16:08:20.261Z,4.27
2018-08-08T16:10:48.671Z,4.80
2018-08-08T16:13:17.137Z,4.77
2018-08-08T16:15:45.843Z,4.90
2018-08-08T16:18:14.344Z,4.50
2018-08-08T16:20:42.782Z,4.17
2018-08-08T16:23:11.224Z,4.90
2018-08-08T16:25:39.634Z,5.20
2018-08-08T16:28:08.280Z,4.63
2018-08-08T16:30:36.706Z,4.47
2018-08-08T16:33:05.260Z,5.07
2018-08-08T16:35:33.674Z,4.20
2018-08-08T16:38:02.168Z,3.80
2018-08-08T16:40:31.116Z,5.70
2018-08-08T16:42:59.577Z,5.10
2018-08-08T16:45:27.934Z,4.50
2018-08-08T16:47:56.406Z,4.97
2018-08-08T16:50:24.767Z,4.20
2018-08-08T16:52:53.221Z,6.00
2018-08-08T16:55:21.627Z,5.47
2018-08-08T16:57:50.006Z,5.10
2018-08-08T17:00:18.373Z,4.37
2018-08-08T17:02:49.649Z,5.10
2018-08-08T17:05:18.039Z,7.60
2018-08-08T17:07:46.381Z,5.00
2018-08-08T17:10:14.800Z,5.43
2018-08-08T17:12:43.230Z,4.83
2018-08-08T17:15:11.658Z,4.40
2018-08-08T17:17:40.066Z,4.57
2018-08-08T17:20:08.616Z,5.40
2018-08-08T17:22:38.300Z,4.40
2018-08-08T17:25:07.160Z,5.40
2018-08-08T17:27:35.822Z,5.23
2018-08-08T17:30:05.048Z,4.80
2018-08-08T17:32:33.578Z,4.43
2018-08-08T17:35:02.420Z,4.93
2018-08-08T17:37:30.836Z,5.10
2018-08-08T17:39:59.281Z,5.60
2018-08-08T17:42:27.792Z,5.00
2018-08-08T17:44:56.269Z,4.70
2018-08-08T17:47:24.724Z,5.17
2018-08-08T17:49:53.135Z,5.03
2018-08-08T17:52:21.587Z,4.43
2018-08-08T17:54:49.963Z,5.70
2018-08-08T17:57:18.450Z,4.60
2018-08-08T17:59:46.919Z,9.40
2018-08-08T18:02:15.449Z,4.80
2018-08-08T18:04:43.860Z,5.17
2018-08-08T18:07:12.381Z,5.73
2018-08-08T18:09:40.767Z,5.40
2018-08-08T18:12:09.688Z,5.60
2018-08-08T18:14:38.137Z,5.27
2018-08-08T18:17:06.836Z,5.03
2018-08-08T18:19:35.871Z,6.43
2018-08-08T18:22:04.556Z,6.47
2018-08-08T18:24:32.986Z,7.47
2018-08-08T18:27:01.425Z,5.93
2018-08-08T18:29:29.955Z,6.10
2018-08-08T18:31:58.426Z,5.53
2018-08-08T18:34:26.878Z,5.73
2018-08-08T18:36:55.387Z,5.40
2018-08-08T18:39:23.794Z,5.30
2018-08-08T18:41:52.364Z,5.63
2018-08-08T18:44:20.760Z,5.17
2018-08-08T18:46:49.624Z,5.47
2018-08-08T18:49:18.117Z,4.73
2018-08-08T18:51:46.625Z,4.97
2018-08-08T18:54:15.057Z,5.43
2018-08-08T18:56:43.473Z,5.37
2018-08-08T18:59:12.156Z,5.17
2018-08-08T19:01:40.575Z,4.73
2018-08-08T19:04:09.025Z,6.40
2018-08-08T19:06:37.556Z,5.50
2018-08-08T19:09:08.228Z,6.70
2018-08-08T19:11:36.632Z,6.57
2018-08-08T19:14:05.615Z,6.03
2018-08-08T19:16:34.046Z,6.30
2018-08-08T19:19:02.639Z,6.33
2018-08-08T19:21:31.041Z,6.60
2018-08-08T19:23:59.443Z,6.70
2018-08-08T19:26:27.979Z,6.53
2018-08-08T19:28:56.373Z,6.70
2018-08-08T19:31:24.777Z,6.87
2018-08-08T19:33:53.333Z,6.67
2018-08-08T19:36:21.782Z,6.63
2018-08-08T19:38:50.335Z,5.97
2018-08-08T19:41:19.008Z,5.50
2018-08-08T19:43:47.812Z,5.70
2018-08-08T19:46:16.641Z,6.33
2018-08-08T19:48:45.191Z,5.77
2018-08-08T19:51:13.609Z,5.13
2018-08-08T19:53:42.205Z,5.50
2018-08-08T19:56:10.685Z,6.47
2018-08-08T19:58:39.170Z,5.57
2018-08-08T20:01:07.622Z,5.73
2018-08-08T20:03:36.074Z,5.17
2018-08-08T20:06:04.530Z,6.67
2018-08-08T20:08:34.650Z,5.30
2018-08-08T20:11:03.383Z,5.83
2018-08-08T20:13:31.951Z,5.77
2018-08-08T20:16:00.822Z,5.60
2018-08-08T20:18:29.339Z,6.97
2018-08-08T20:20:57.854Z,6.80
2018-08-08T20:23:26.283Z,6.63
2018-08-08T20:25:54.871Z,5.70
2018-08-08T20:28:23.364Z,5.50
2018-08-08T20:31:20.287Z,6.07
2018-08-08T20:33:49.486Z,6.30
2018-08-08T20:36:17.989Z,6.53
2018-08-08T20:38:46.457Z,5.90
2018-08-08T20:41:14.981Z,6.43
2018-08-08T20:43:43.440Z,5.60
2018-08-08T20:46:11.926Z,5.57
2018-08-08T20:48:40.454Z,6.97
2018-08-08T20:51:09.022Z,6.60
2018-08-08T20:53:37.412Z,6.67
2018-08-08T20:56:06.118Z,5.30
2018-08-08T20:58:34.528Z,7.10
2018-08-08T21:01:02.988Z,6.53
2018-08-08T21:03:31.623Z,6.90
2018-08-08T21:06:00.123Z,6.43
2018-08-08T21:08:28.555Z,7.07
2018-08-08T21:10:57.028Z,6.50
2018-08-08T21:13:25.381Z,7.07
2018-08-08T21:15:53.821Z,5.90
2018-08-08T21:18:22.211Z,6.77
2018-08-08T21:20:50.665Z,6.90
2018-08-08T21:23:19.102Z,5.77
2018-08-08T21:25:47.553Z,7.43
2018-08-08T21:28:16.043Z,6.67
2018-08-08T21:30:44.491Z,5.40
2018-08-08T21:33:12.924Z,6.30
2018-08-08T21:35:41.870Z,6.50
2018-08-08T21:38:10.225Z,6.43
2018-08-08T21:40:38.733Z,5.77
2018-08-08T21:43:07.314Z,6.47
2018-08-08T21:45:35.713Z,6.30
2018-08-08T21:48:04.196Z,6.10
2018-08-08T21:50:32.545Z,7.20
2018-08-08T21:53:00.922Z,7.67
2018-08-08T21:55:46.326Z,7.20
2018-08-08T21:58:31.656Z,7.00
2018-08-08T22:01:16.887Z,7.70
2018-08-08T22:04:02.092Z,6.87
2018-08-08T22:10:54.246Z,7.07
2018-08-08T22:13:39.821Z,5.33
2018-08-08T22:17:30.472Z,7.27
2018-08-08T22:19:58.945Z,6.70
2018-08-08T22:22:27.361Z,6.63
2018-08-08T22:24:55.681Z,6.30
2018-08-08T22:27:24.097Z,6.30
2018-08-08T22:29:52.488Z,6.30
2018-08-08T22:32:20.870Z,7.00
2018-08-08T22:34:49.250Z,6.47
2018-08-08T22:37:17.565Z,6.80
2018-08-08T22:39:45.952Z,5.97
2018-08-08T22:42:14.312Z,6.03
2018-08-08T22:44:42.653Z,7.30
2018-08-08T22:47:11.041Z,6.63
2018-08-08T22:49:39.501Z,7.33
2018-08-08T22:52:07.949Z,6.90
2018-08-08T22:54:36.384Z,6.20
2018-08-08T22:57:05.487Z,6.77
2018-08-08T22:59:33.843Z,6.87
2018-08-08T23:02:02.286Z,6.63
2018-08-08T23:04:30.685Z,7.07
2018-08-08T23:06:59.122Z,7.83
2018-08-08T23:09:27.582Z,6.67
2018-08-08T23:11:55.902Z,7.63
2018-08-08T23:14:24.298Z,8.60
2018-08-08T23:16:52.702Z,7.20
2018-08-08T23:19:21.254Z,7.47
2018-08-08T23:21:49.552Z,7.30
2018-08-08T23:24:17.842Z,6.90
2018-08-08T23:26:46.193Z,7.07
2018-08-08T23:29:14.542Z,6.53
2018-08-08T23:31:42.912Z,6.83
2018-08-08T23:34:11.220Z,6.80
2018-08-08T23:36:39.545Z,7.00
2018-08-08T23:39:08.910Z,7.47
2018-08-08T23:41:37.322Z,7.80
2018-08-08T23:44:05.669Z,7.53
2018-08-08T23:46:34.029Z,7.30
2018-08-08T23:49:02.470Z,6.47
2018-08-08T23:51:30.796Z,6.90
2018-08-08T23:53:59.231Z,8.00
2018-08-08T23:56:27.575Z,8.03
2018-08-08T23:58:55.881Z,8.07
